sensor_id;sensor_type;location;lat;lon;timestamp;pressure;altitude;pressure_sealevel;temperature;humidity
66681;BME280;53575;51.366;12.350;2023-04-08T00:00:05;100747.56;;;5.75;100.00
66681;BME280;53575;51.366;12.350;2023-04-08T00:02:32;100738.50;;;5.54;100.00
66681;BME280;53575;51.366;12.350;2023-04-08T00:04:57;100742.53;;;5.42;100.00
66681;BME280;53575;51.366;12.350;2023-04-08T00:07:23;100740.34;;;5.60;100.00
66681;BME280;53575;51.366;12.350;2023-04-08T00:09:48;100742.00;;;5.56;100.00
66681;BME280;53575;51.366;12.350;2023-04-08T00:12:14;100737.19;;;5.73;100.00
66681;BME280;53575;51.366;12.350;2023-04-08T00:14:39;100742.31;;;5.72;100.00
66681;BME280;53575;51.366;12.350;2023-04-08T00:17:06;100739.88;;;5.79;100.00
66681;BME280;53575;51.366;12.350;2023-04-08T00:19:31;100739.19;;;5.88;100.00
66681;BME280;53575;51.366;12.350;2023-04-08T00:21:57;100745.31;;;5.92;100.00
66681;BME280;53575;51.366;12.350;2023-04-08T00:24:23;100734.69;;;5.79;100.00
66681;BME280;53575;51.366;12.350;2023-04-08T00:26:49;100735.69;;;5.86;100.00
66681;BME280;53575;51.366;12.350;2023-04-08T00:29:14;100734.84;;;5.87;100.00
66681;BME280;53575;51.366;12.350;2023-04-08T00:31:40;100743.25;;;5.75;100.00
66681;BME280;53575;51.366;12.350;2023-04-08T00:34:06;100744.78;;;5.66;100.00
66681;BME280;53575;51.366;12.350;2023-04-08T00:36:31;100743.19;;;5.72;100.00
66681;BME280;53575;51.366;12.350;2023-04-08T00:38:57;100743.16;;;5.69;100.00
66681;BME280;53575;51.366;12.350;2023-04-08T00:41:23;100744.88;;;5.70;100.00
66681;BME280;53575;51.366;12.350;2023-04-08T00:43:48;100743.00;;;5.63;100.00
66681;BME280;53575;51.366;12.350;2023-04-08T00:46:14;100736.03;;;5.60;100.00
66681;BME280;53575;51.366;12.350;2023-04-08T00:48:40;100740.41;;;5.63;100.00
66681;BME280;53575;51.366;12.350;2023-04-08T00:51:06;100744.63;;;5.58;100.00
66681;BME280;53575;51.366;12.350;2023-04-08T00:53:32;100737.59;;;5.52;100.00
66681;BME280;53575;51.366;12.350;2023-04-08T00:55:57;100739.06;;;5.40;100.00
66681;BME280;53575;51.366;12.350;2023-04-08T00:58:26;100747.78;;;5.45;100.00
66681;BME280;53575;51.366;12.350;2023-04-08T01:00:59;100740.09;;;5.49;100.00
66681;BME280;53575;51.366;12.350;2023-04-08T01:03:36;100741.78;;;5.46;100.00
66681;BME280;53575;51.366;12.350;2023-04-08T01:06:18;100733.13;;;5.45;100.00
66681;BME280;53575;51.366;12.350;2023-04-08T01:08:46;100733.25;;;5.51;100.00
66681;BME280;53575;51.366;12.350;2023-04-08T01:11:13;100733.81;;;5.36;100.00
66681;BME280;53575;51.366;12.350;2023-04-08T01:13:41;100739.75;;;5.31;100.00
66681;BME280;53575;51.366;12.350;2023-04-08T01:16:11;100744.31;;;5.43;100.00
66681;BME280;53575;51.366;12.350;2023-04-08T01:18:37;100743.69;;;5.54;100.00
66681;BME280;53575;51.366;12.350;2023-04-08T01:21:04;100743.69;;;5.54;100.00
66681;BME280;53575;51.366;12.350;2023-04-08T01:26:21;100739.84;;;5.35;100.00
66681;BME280;53575;51.366;12.350;2023-04-08T01:28:49;100745.19;;;5.43;100.00
66681;BME280;53575;51.366;12.350;2023-04-08T01:31:18;100748.72;;;5.47;100.00
66681;BME280;53575;51.366;12.350;2023-04-08T01:33:45;100749.41;;;5.38;100.00
66681;BME280;53575;51.366;12.350;2023-04-08T01:36:13;100747.78;;;5.45;100.00
66681;BME280;53575;51.366;12.350;2023-04-08T01:38:38;100748.03;;;5.57;100.00
66681;BME280;53575;51.366;12.350;2023-04-08T01:41:04;100739.19;;;5.46;100.00
66681;BME280;53575;51.366;12.350;2023-04-08T01:43:32;100748.91;;;5.56;100.00
66681;BME280;53575;51.366;12.350;2023-04-08T01:45:59;100749.75;;;5.55;100.00
66681;BME280;53575;51.366;12.350;2023-04-08T01:48:26;100744.59;;;5.56;100.00
66681;BME280;53575;51.366;12.350;2023-04-08T01:50:53;100741.84;;;5.49;100.00
66681;BME280;53575;51.366;12.350;2023-04-08T01:53:20;100751.22;;;5.42;100.00
66681;BME280;53575;51.366;12.350;2023-04-08T01:55:48;100735.69;;;5.44;100.00
66681;BME280;53575;51.366;12.350;2023-04-08T01:58:19;100744.25;;;5.40;100.00
66681;BME280;53575;51.366;12.350;2023-04-08T02:00:45;100742.97;;;5.22;100.00
66681;BME280;53575;51.366;12.350;2023-04-08T02:03:12;100744.25;;;5.40;100.00
66681;BME280;53575;51.366;12.350;2023-04-08T02:05:39;100750.59;;;5.54;100.00
66681;BME280;53575;51.366;12.350;2023-04-08T02:08:05;100740.84;;;5.42;100.00
66681;BME280;53575;51.366;12.350;2023-04-08T02:10:30;100732.63;;;5.63;100.00
66681;BME280;53575;51.366;12.350;2023-04-08T02:12:56;100727.53;;;5.68;100.00
66681;BME280;53575;51.366;12.350;2023-04-08T02:15:22;100729.09;;;5.59;100.00
66681;BME280;53575;51.366;12.350;2023-04-08T02:17:52;100726.59;;;5.64;100.00
66681;BME280;53575;51.366;12.350;2023-04-08T02:23:18;100734.06;;;5.49;100.00
66681;BME280;53575;51.366;12.350;2023-04-08T02:25:44;100733.06;;;5.42;100.00
66681;BME280;53575;51.366;12.350;2023-04-08T02:28:11;100744.50;;;5.52;100.00
66681;BME280;53575;51.366;12.350;2023-04-08T02:30:41;100741.75;;;5.44;100.00
66681;BME280;53575;51.366;12.350;2023-04-08T02:33:08;100737.34;;;5.40;100.00
66681;BME280;53575;51.366;12.350;2023-04-08T02:35:35;100747.09;;;5.52;100.00
66681;BME280;53575;51.366;12.350;2023-04-08T02:38:03;100742.00;;;5.56;100.00
66681;BME280;53575;51.366;12.350;2023-04-08T02:40:30;100741.97;;;5.53;100.00
66681;BME280;53575;51.366;12.350;2023-04-08T02:42:57;100744.38;;;5.46;100.00
66681;BME280;53575;51.366;12.350;2023-04-08T02:45:26;100748.66;;;5.44;100.00
66681;BME280;53575;51.366;12.350;2023-04-08T02:47:52;100746.81;;;5.38;100.00
66681;BME280;53575;51.366;12.350;2023-04-08T02:50:17;100745.97;;;5.39;100.00
66681;BME280;53575;51.366;12.350;2023-04-08T02:52:43;100751.31;;;5.47;100.00
66681;BME280;53575;51.366;12.350;2023-04-08T02:55:09;100747.88;;;5.48;100.00
66681;BME280;53575;51.366;12.350;2023-04-08T02:57:36;100750.38;;;5.45;100.00
66681;BME280;53575;51.366;12.350;2023-04-08T03:00:05;100746.06;;;5.45;100.00
66681;BME280;53575;51.366;12.350;2023-04-08T03:02:31;100745.09;;;5.40;100.00
66681;BME280;53575;51.366;12.350;2023-04-08T03:04:56;100752.09;;;5.44;100.00
66681;BME280;53575;51.366;12.350;2023-04-08T03:07:22;100744.16;;;5.35;100.00
66681;BME280;53575;51.366;12.350;2023-04-08T03:09:47;100744.91;;;5.31;100.00
66681;BME280;53575;51.366;12.350;2023-04-08T03:12:13;100747.63;;;5.37;100.00
66681;BME280;53575;51.366;12.350;2023-04-08T03:14:38;100743.47;;;5.44;100.00
66681;BME280;53575;51.366;12.350;2023-04-08T03:17:03;100755.47;;;5.38;100.00
66681;BME280;53575;51.366;12.350;2023-04-08T03:19:29;100754.59;;;5.38;100.00
66681;BME280;53575;51.366;12.350;2023-04-08T03:21:54;100747.44;;;5.28;100.00
66681;BME280;53575;51.366;12.350;2023-04-08T03:24:19;100753.69;;;5.37;100.00
66681;BME280;53575;51.366;12.350;2023-04-08T03:26:45;100759.88;;;5.44;100.00
66681;BME280;53575;51.366;12.350;2023-04-08T03:29:10;100759.94;;;5.46;100.00
66681;BME280;53575;51.366;12.350;2023-04-08T03:31:36;100758.22;;;5.48;100.00
66681;BME280;53575;51.366;12.350;2023-04-08T03:34:01;100764.91;;;5.36;100.00
66681;BME280;53575;51.366;12.350;2023-04-08T03:36:26;100756.88;;;5.26;100.00
66681;BME280;53575;51.366;12.350;2023-04-08T03:38:52;100760.66;;;5.40;100.00
66681;BME280;53575;51.366;12.350;2023-04-08T03:41:17;100764.22;;;5.45;100.00
66681;BME280;53575;51.366;12.350;2023-04-08T03:43:43;100769.66;;;5.18;100.00
66681;BME280;53575;51.366;12.350;2023-04-08T03:46:08;100764.63;;;5.24;100.00
66681;BME280;53575;51.366;12.350;2023-04-08T03:48:34;100772.56;;;5.30;100.00
66681;BME280;53575;51.366;12.350;2023-04-08T03:50:59;100774.03;;;5.19;100.00
66681;BME280;53575;51.366;12.350;2023-04-08T03:53:24;100777.50;;;5.20;100.00
66681;BME280;53575;51.366;12.350;2023-04-08T03:55:52;100774.91;;;5.21;100.00
66681;BME280;53575;51.366;12.350;2023-04-08T03:58:17;100777.41;;;5.17;100.00
66681;BME280;53575;51.366;12.350;2023-04-08T04:00:43;100776.56;;;5.18;100.00
66681;BME280;53575;51.366;12.350;2023-04-08T04:03:08;100780.19;;;5.26;100.00
66681;BME280;53575;51.366;12.350;2023-04-08T04:05:37;100774.72;;;5.12;100.00
66681;BME280;53575;51.366;12.350;2023-04-08T04:08:03;100773.97;;;5.18;100.00
66681;BME280;53575;51.366;12.350;2023-04-08T04:10:29;100775.72;;;5.19;100.00
66681;BME280;53575;51.366;12.350;2023-04-08T04:12:54;100779.94;;;5.13;100.00
66681;BME280;53575;51.366;12.350;2023-04-08T04:15:19;100769.56;;;5.13;100.00
66681;BME280;53575;51.366;12.350;2023-04-08T04:17:47;100770.69;;;5.25;100.00
66681;BME280;53575;51.366;12.350;2023-04-08T04:20:14;100773.44;;;5.32;100.00
66681;BME280;53575;51.366;12.350;2023-04-08T04:22:40;100783.75;;;5.29;100.00
66681;BME280;53575;51.366;12.350;2023-04-08T04:25:05;100787.19;;;5.30;100.00
66681;BME280;53575;51.366;12.350;2023-04-08T04:27:31;100788.03;;;5.27;100.00
66681;BME280;53575;51.366;12.350;2023-04-08T04:29:56;100795.72;;;5.24;100.00
66681;BME280;53575;51.366;12.350;2023-04-08T04:32:22;100800.13;;;5.28;100.00
66681;BME280;53575;51.366;12.350;2023-04-08T04:34:47;100796.66;;;5.28;100.00
66681;BME280;53575;51.366;12.350;2023-04-08T04:37:12;100794.59;;;5.13;100.00
66681;BME280;53575;51.366;12.350;2023-04-08T04:39:38;100791.50;;;5.28;100.00
66681;BME280;53575;51.366;12.350;2023-04-08T04:42:03;100802.81;;;5.31;100.00
66681;BME280;53575;51.366;12.350;2023-04-08T04:44:28;100800.47;;;5.42;100.00
66681;BME280;53575;51.366;12.350;2023-04-08T04:46:54;100805.56;;;5.39;100.00
66681;BME280;53575;51.366;12.350;2023-04-08T04:49:20;100818.13;;;5.22;100.00
66681;BME280;53575;51.366;12.350;2023-04-08T04:51:45;100814.81;;;5.28;100.00
66681;BME280;53575;51.366;12.350;2023-04-08T04:54:11;100815.47;;;5.19;100.00
66681;BME280;53575;51.366;12.350;2023-04-08T04:56:36;100814.84;;;5.29;100.00
66681;BME280;53575;51.366;12.350;2023-04-08T04:59:02;100821.78;;;5.30;100.00
66681;BME280;53575;51.366;12.350;2023-04-08T05:01:29;100814.13;;;5.35;100.00
66681;BME280;53575;51.366;12.350;2023-04-08T05:03:55;100820.19;;;5.37;100.00
66681;BME280;53575;51.366;12.350;2023-04-08T05:06:22;100815.94;;;5.39;100.00
66681;BME280;53575;51.366;12.350;2023-04-08T05:08:48;100810.69;;;5.37;100.00
66681;BME280;53575;51.366;12.350;2023-04-08T05:11:13;100813.38;;;5.41;100.00
66681;BME280;53575;51.366;12.350;2023-04-08T05:13:39;100820.28;;;5.42;100.00
66681;BME280;53575;51.366;12.350;2023-04-08T05:16:04;100822.78;;;5.37;100.00
66681;BME280;53575;51.366;12.350;2023-04-08T05:18:30;100829.69;;;5.36;100.00
66681;BME280;53575;51.366;12.350;2023-04-08T05:20:55;100835.56;;;5.29;100.00
66681;BME280;53575;51.366;12.350;2023-04-08T05:23:21;100834.19;;;5.44;100.00
66681;BME280;53575;51.366;12.350;2023-04-08T05:25:46;100838.50;;;5.45;100.00
66681;BME280;53575;51.366;12.350;2023-04-08T05:28:11;100833.81;;;5.28;100.00
66681;BME280;53575;51.366;12.350;2023-04-08T05:30:37;100840.84;;;5.34;100.00
66681;BME280;53575;51.366;12.350;2023-04-08T05:33:02;100843.94;;;5.54;100.00
66681;BME280;53575;51.366;12.350;2023-04-08T05:35:28;100842.88;;;5.46;100.00
66681;BME280;53575;51.366;12.350;2023-04-08T05:37:53;100846.56;;;5.57;100.00
66681;BME280;53575;51.366;12.350;2023-04-08T05:40:18;100850.19;;;5.63;100.00
66681;BME280;53575;51.366;12.350;2023-04-08T05:42:44;100847.22;;;5.47;100.00
66681;BME280;53575;51.366;12.350;2023-04-08T05:45:10;100848.25;;;5.55;100.00
66681;BME280;53575;51.366;12.350;2023-04-08T05:47:35;100848.34;;;5.59;100.00
66681;BME280;53575;51.366;12.350;2023-04-08T05:50:01;100846.69;;;5.61;100.00
66681;BME280;53575;51.366;12.350;2023-04-08T05:52:26;100846.28;;;5.45;100.00
66681;BME280;53575;51.366;12.350;2023-04-08T05:54:51;100848.69;;;5.35;100.00
66681;BME280;53575;51.366;12.350;2023-04-08T05:57:17;100849.81;;;5.47;100.00
66681;BME280;53575;51.366;12.350;2023-04-08T05:59:43;100847.16;;;5.45;100.00
66681;BME280;53575;51.366;12.350;2023-04-08T06:02:08;100842.06;;;5.48;100.00
66681;BME280;53575;51.366;12.350;2023-04-08T06:04:33;100846.97;;;5.37;100.00
66681;BME280;53575;51.366;12.350;2023-04-08T06:06:59;100852.16;;;5.37;100.00
66681;BME280;53575;51.366;12.350;2023-04-08T06:09:27;100861.16;;;5.52;100.00
66681;BME280;53575;51.366;12.350;2023-04-08T06:11:52;100859.66;;;5.63;100.00
66681;BME280;53575;51.366;12.350;2023-04-08T06:14:18;100862.00;;;5.52;100.00
66681;BME280;53575;51.366;12.350;2023-04-08T06:16:44;100861.75;;;5.40;100.00
66681;BME280;53575;51.366;12.350;2023-04-08T06:19:10;100869.06;;;5.58;100.00
66681;BME280;53575;51.366;12.350;2023-04-08T06:21:35;100873.38;;;5.57;100.00
66681;BME280;53575;51.366;12.350;2023-04-08T06:24:00;100867.97;;;5.48;100.00
66681;BME280;53575;51.366;12.350;2023-04-08T06:26:26;100871.50;;;5.52;100.00
66681;BME280;53575;51.366;12.350;2023-04-08T06:28:52;100874.09;;;5.52;100.00
66681;BME280;53575;51.366;12.350;2023-04-08T06:31:17;100870.19;;;5.69;100.00
66681;BME280;53575;51.366;12.350;2023-04-08T06:33:43;100875.25;;;5.65;100.00
66681;BME280;53575;51.366;12.350;2023-04-08T06:36:08;100877.91;;;5.66;100.00
66681;BME280;53575;51.366;12.350;2023-04-08T06:38:34;100879.72;;;5.70;100.00
66681;BME280;53575;51.366;12.350;2023-04-08T06:41:06;100889.63;;;5.88;100.00
66681;BME280;53575;51.366;12.350;2023-04-08T06:43:33;100890.78;;;5.63;100.00
66681;BME280;53575;51.366;12.350;2023-04-08T06:45:59;100894.06;;;5.54;100.00
66681;BME280;53575;51.366;12.350;2023-04-08T06:48:24;100893.28;;;5.58;100.00
66681;BME280;53575;51.366;12.350;2023-04-08T06:50:58;100906.19;;;5.57;100.00
66681;BME280;53575;51.366;12.350;2023-04-08T06:53:25;100902.09;;;5.67;100.00
66681;BME280;53575;51.366;12.350;2023-04-08T06:55:51;100902.22;;;5.71;100.00
66681;BME280;53575;51.366;12.350;2023-04-08T06:58:17;100910.06;;;5.74;100.00
66681;BME280;53575;51.366;12.350;2023-04-08T07:00:43;100908.66;;;5.89;100.00
66681;BME280;53575;51.366;12.350;2023-04-08T07:03:08;100917.16;;;5.81;100.00
66681;BME280;53575;51.366;12.350;2023-04-08T07:05:35;100913.69;;;5.82;100.00
66681;BME280;53575;51.366;12.350;2023-04-08T07:08:01;100919.94;;;5.91;100.00
66681;BME280;53575;51.366;12.350;2023-04-08T07:10:26;100920.53;;;5.79;100.00
66681;BME280;53575;51.366;12.350;2023-04-08T07:12:52;100920.19;;;6.00;100.00
66681;BME280;53575;51.366;12.350;2023-04-08T07:15:18;100917.00;;;6.13;100.00
66681;BME280;53575;51.366;12.350;2023-04-08T07:17:43;100929.97;;;6.12;100.00
66681;BME280;53575;51.366;12.350;2023-04-08T07:20:09;100925.91;;;6.24;100.00
66681;BME280;53575;51.366;12.350;2023-04-08T07:22:35;100922.41;;;6.22;100.00
66681;BME280;53575;51.366;12.350;2023-04-08T07:25:00;100926.03;;;6.30;100.00
66681;BME280;53575;51.366;12.350;2023-04-08T07:27:27;100936.75;;;6.46;100.00
66681;BME280;53575;51.366;12.350;2023-04-08T07:29:52;100931.50;;;6.44;100.00
66681;BME280;53575;51.366;12.350;2023-04-08T07:32:20;100929.53;;;6.32;100.00
66681;BME280;53575;51.366;12.350;2023-04-08T07:34:47;100929.22;;;6.59;100.00
66681;BME280;53575;51.366;12.350;2023-04-08T07:37:12;100939.72;;;6.64;100.00
66681;BME280;53575;51.366;12.350;2023-04-08T07:39:37;100944.69;;;6.53;100.00
66681;BME280;53575;51.366;12.350;2023-04-08T07:42:03;100931.00;;;6.62;100.00
66681;BME280;53575;51.366;12.350;2023-04-08T07:44:28;100933.44;;;6.54;100.00
66681;BME280;53575;51.366;12.350;2023-04-08T07:46:54;100934.03;;;6.83;100.00
66681;BME280;53575;51.366;12.350;2023-04-08T07:49:19;100936.94;;;7.00;100.00
66681;BME280;53575;51.366;12.350;2023-04-08T07:51:45;100939.53;;;7.02;100.00
66681;BME280;53575;51.366;12.350;2023-04-08T07:54:10;100928.53;;;7.14;100.00
66681;BME280;53575;51.366;12.350;2023-04-08T07:56:37;100940.72;;;7.18;100.00
66681;BME280;53575;51.366;12.350;2023-04-08T07:59:05;100947.00;;;7.30;100.00
66681;BME280;53575;51.366;12.350;2023-04-08T08:01:31;100948.84;;;7.38;100.00
66681;BME280;53575;51.366;12.350;2023-04-08T08:03:59;100934.25;;;7.47;100.00
66681;BME280;53575;51.366;12.350;2023-04-08T08:06:24;100956.06;;;7.54;100.00
66681;BME280;53575;51.366;12.350;2023-04-08T08:08:50;100948.66;;;7.78;100.00
66681;BME280;53575;51.366;12.350;2023-04-08T08:11:15;100950.59;;;7.93;100.00
66681;BME280;53575;51.366;12.350;2023-04-08T08:13:41;100949.88;;;8.02;100.00
66681;BME280;53575;51.366;12.350;2023-04-08T08:16:06;100949.00;;;8.01;100.00
66681;BME280;53575;51.366;12.350;2023-04-08T08:18:35;100952.53;;;8.06;100.00
66681;BME280;53575;51.366;12.350;2023-04-08T08:21:01;100960.50;;;8.20;100.00
66681;BME280;53575;51.366;12.350;2023-04-08T08:23:27;100969.28;;;8.25;99.84
66681;BME280;53575;51.366;12.350;2023-04-08T08:26:03;100967.44;;;8.17;100.00
66681;BME280;53575;51.366;12.350;2023-04-08T08:28:28;100967.50;;;8.21;99.68
66681;BME280;53575;51.366;12.350;2023-04-08T08:30:53;100958.06;;;8.28;100.00
66681;BME280;53575;51.366;12.350;2023-04-08T08:33:19;100966.38;;;8.04;100.00
66681;BME280;53575;51.366;12.350;2023-04-08T08:35:45;100967.53;;;8.24;100.00
66681;BME280;53575;51.366;12.350;2023-04-08T08:38:10;100969.50;;;8.39;100.00
66681;BME280;53575;51.366;12.350;2023-04-08T08:40:38;100970.78;;;8.72;98.74
66681;BME280;53575;51.366;12.350;2023-04-08T08:43:03;100973.53;;;8.83;97.89
66681;BME280;53575;51.366;12.350;2023-04-08T08:45:29;100979.53;;;8.77;96.92
66681;BME280;53575;51.366;12.350;2023-04-08T08:47:55;100979.50;;;8.74;97.24
66681;BME280;53575;51.366;12.350;2023-04-08T08:50:21;100983.97;;;8.86;95.84
66681;BME280;53575;51.366;12.350;2023-04-08T08:52:49;100989.41;;;9.06;94.12
66681;BME280;53575;51.366;12.350;2023-04-08T08:55:17;100991.06;;;8.97;93.26
66681;BME280;53575;51.366;12.350;2023-04-08T08:57:42;100991.91;;;8.96;93.59
66681;BME280;53575;51.366;12.350;2023-04-08T09:00:09;100992.81;;;9.00;93.68
66681;BME280;53575;51.366;12.350;2023-04-08T09:02:35;100992.69;;;8.88;94.85
66681;BME280;53575;51.366;12.350;2023-04-08T09:05:02;100988.28;;;8.82;96.11
66681;BME280;53575;51.366;12.350;2023-04-08T09:07:30;100988.41;;;8.94;95.72
66681;BME280;53575;51.366;12.350;2023-04-08T09:09:57;100991.34;;;9.26;93.38
66681;BME280;53575;51.366;12.350;2023-04-08T09:12:24;100998.56;;;9.50;92.07
66681;BME280;53575;51.366;12.350;2023-04-08T09:15:04;100998.59;;;9.55;91.05
66681;BME280;53575;51.366;12.350;2023-04-08T09:17:38;101000.28;;;9.48;90.77
66681;BME280;53575;51.366;12.350;2023-04-08T09:20:11;101009.84;;;9.46;90.73
66681;BME280;53575;51.366;12.350;2023-04-08T09:22:59;101002.81;;;9.39;90.88
66681;BME280;53575;51.366;12.350;2023-04-08T09:25:27;101011.31;;;9.23;91.69
66681;BME280;53575;51.366;12.350;2023-04-08T09:27:53;101003.72;;;9.46;92.37
66681;BME280;53575;51.366;12.350;2023-04-08T09:30:21;101008.88;;;9.40;92.25
66681;BME280;53575;51.366;12.350;2023-04-08T09:32:48;101010.34;;;9.13;92.12
66681;BME280;53575;51.366;12.350;2023-04-08T09:35:14;101011.13;;;9.05;92.12
66681;BME280;53575;51.366;12.350;2023-04-08T09:37:41;101018.69;;;8.85;93.49
66681;BME280;53575;51.366;12.350;2023-04-08T09:40:07;101015.09;;;8.73;95.08
66681;BME280;53575;51.366;12.350;2023-04-08T09:42:35;101014.22;;;8.73;95.88
66681;BME280;53575;51.366;12.350;2023-04-08T09:45:04;101018.59;;;8.75;96.45
66681;BME280;53575;51.366;12.350;2023-04-08T09:47:43;101022.84;;;8.69;96.85
66681;BME280;53575;51.366;12.350;2023-04-08T09:50:13;101026.13;;;8.54;97.13
66681;BME280;53575;51.366;12.350;2023-04-08T09:52:45;101020.69;;;8.39;98.56
66681;BME280;53575;51.366;12.350;2023-04-08T09:55:16;101024.13;;;8.36;99.94
66681;BME280;53575;51.366;12.350;2023-04-08T10:00:17;101029.22;;;8.28;99.80
66681;BME280;53575;51.366;12.350;2023-04-08T10:03:08;101030.41;;;8.50;99.09
66681;BME280;53575;51.366;12.350;2023-04-08T10:05:36;101028.06;;;8.67;98.37
66681;BME280;53575;51.366;12.350;2023-04-08T10:08:04;101029.03;;;8.77;98.11
66681;BME280;53575;51.366;12.350;2023-04-08T10:10:30;101027.28;;;8.74;97.53
66681;BME280;53575;51.366;12.350;2023-04-08T10:12:56;101029.69;;;8.61;97.94
66681;BME280;53575;51.366;12.350;2023-04-08T10:17:56;101026.97;;;8.51;97.72
66681;BME280;53575;51.366;12.350;2023-04-08T10:20:44;101038.38;;;8.60;97.80
66681;BME280;53575;51.366;12.350;2023-04-08T10:23:11;101041.19;;;8.76;97.07
66681;BME280;53575;51.366;12.350;2023-04-08T10:25:39;101035.81;;;8.64;96.92
66681;BME280;53575;51.366;12.350;2023-04-08T10:30:42;101030.63;;;8.64;98.21
66681;BME280;53575;51.366;12.350;2023-04-08T10:33:10;101041.13;;;8.73;97.14
66681;BME280;53575;51.366;12.350;2023-04-08T10:35:38;101037.50;;;8.59;97.92
66681;BME280;53575;51.366;12.350;2023-04-08T10:38:07;101038.22;;;8.47;99.67
66681;BME280;53575;51.366;12.350;2023-04-08T10:40:37;101038.22;;;8.49;99.25
66681;BME280;53575;51.366;12.350;2023-04-08T10:43:04;101040.78;;;8.44;99.71
66681;BME280;53575;51.366;12.350;2023-04-08T10:45:32;101038.03;;;8.37;98.67
66681;BME280;53575;51.366;12.350;2023-04-08T10:50:37;101039.25;;;8.60;97.37
66681;BME280;53575;51.366;12.350;2023-04-08T10:53:02;101039.53;;;8.85;95.64
66681;BME280;53575;51.366;12.350;2023-04-08T10:55:29;101047.50;;;8.95;94.55
66681;BME280;53575;51.366;12.350;2023-04-08T10:58:09;101041.84;;;9.32;93.06
66681;BME280;53575;51.366;12.350;2023-04-08T11:00:37;101042.09;;;9.58;90.72
66681;BME280;53575;51.366;12.350;2023-04-08T11:03:04;101038.97;;;9.97;89.98
66681;BME280;53575;51.366;12.350;2023-04-08T11:05:31;101034.78;;;10.22;87.42
66681;BME280;53575;51.366;12.350;2023-04-08T11:08:00;101037.50;;;10.33;87.45
66681;BME280;53575;51.366;12.350;2023-04-08T11:10:26;101034.16;;;10.52;86.73
66681;BME280;53575;51.366;12.350;2023-04-08T11:12:53;101048.66;;;10.15;87.26
66681;BME280;53575;51.366;12.350;2023-04-08T11:15:20;101039.25;;;10.32;87.66
66681;BME280;53575;51.366;12.350;2023-04-08T11:17:46;101038.63;;;10.73;86.50
66681;BME280;53575;51.366;12.350;2023-04-08T11:20:12;101033.38;;;10.74;85.29
66681;BME280;53575;51.366;12.350;2023-04-08T11:22:38;101043.16;;;11.15;84.36
66681;BME280;53575;51.366;12.350;2023-04-08T11:25:05;101043.22;;;11.55;81.34
66681;BME280;53575;51.366;12.350;2023-04-08T11:27:33;101039.78;;;11.71;78.57
66681;BME280;53575;51.366;12.350;2023-04-08T11:29:59;101031.94;;;11.93;77.85
66681;BME280;53575;51.366;12.350;2023-04-08T11:32:26;101033.63;;;12.32;77.29
66681;BME280;53575;51.366;12.350;2023-04-08T11:34:53;101033.59;;;12.58;76.29
66681;BME280;53575;51.366;12.350;2023-04-08T11:37:19;101032.75;;;12.52;75.86
66681;BME280;53575;51.366;12.350;2023-04-08T11:39:45;101030.16;;;12.38;75.06
66681;BME280;53575;51.366;12.350;2023-04-08T11:42:30;101036.25;;;12.32;73.31
66681;BME280;53575;51.366;12.350;2023-04-08T11:44:56;101030.13;;;12.39;73.39
66681;BME280;53575;51.366;12.350;2023-04-08T11:47:31;101033.66;;;12.23;74.12
66681;BME280;53575;51.366;12.350;2023-04-08T11:49:58;101027.53;;;11.70;75.88
66681;BME280;53575;51.366;12.350;2023-04-08T11:52:46;101031.00;;;11.51;77.69
66681;BME280;53575;51.366;12.350;2023-04-08T11:55:21;101031.88;;;11.39;76.16
66681;BME280;53575;51.366;12.350;2023-04-08T11:57:47;101028.41;;;11.59;75.44
66681;BME280;53575;51.366;12.350;2023-04-08T12:00:13;101027.53;;;11.61;75.61
66681;BME280;53575;51.366;12.350;2023-04-08T12:02:39;101037.13;;;11.42;75.84
66681;BME280;53575;51.366;12.350;2023-04-08T12:05:05;101034.53;;;11.65;75.55
66681;BME280;53575;51.366;12.350;2023-04-08T12:07:32;101039.78;;;11.90;73.84
66681;BME280;53575;51.366;12.350;2023-04-08T12:09:57;101043.25;;;11.83;73.10
66681;BME280;53575;51.366;12.350;2023-04-08T12:12:23;101044.16;;;11.85;72.87
66681;BME280;53575;51.366;12.350;2023-04-08T12:14:48;101044.13;;;11.53;74.75
66681;BME280;53575;51.366;12.350;2023-04-08T12:17:14;101048.44;;;11.43;76.78
66681;BME280;53575;51.366;12.350;2023-04-08T12:19:40;101043.25;;;11.77;75.44
66681;BME280;53575;51.366;12.350;2023-04-08T12:22:05;101033.66;;;11.68;75.13
66681;BME280;53575;51.366;12.350;2023-04-08T12:24:31;101044.97;;;11.47;72.72
66681;BME280;53575;51.366;12.350;2023-04-08T12:26:56;101044.00;;;11.11;74.19
66681;BME280;53575;51.366;12.350;2023-04-08T12:29:21;101042.13;;;10.83;74.65
66681;BME280;53575;51.366;12.350;2023-04-08T12:31:47;101044.78;;;10.86;74.34
66681;BME280;53575;51.366;12.350;2023-04-08T12:34:12;101045.75;;;11.08;74.36
66681;BME280;53575;51.366;12.350;2023-04-08T12:36:38;101049.25;;;11.16;74.00
66681;BME280;53575;51.366;12.350;2023-04-08T12:39:03;101057.97;;;11.19;74.24
66681;BME280;53575;51.366;12.350;2023-04-08T12:41:29;101051.06;;;11.41;73.80
66681;BME280;53575;51.366;12.350;2023-04-08T12:43:54;101052.81;;;11.44;71.73
66681;BME280;53575;51.366;12.350;2023-04-08T12:46:20;101055.41;;;11.44;71.70
66681;BME280;53575;51.366;12.350;2023-04-08T12:48:46;101039.78;;;11.81;70.94
66681;BME280;53575;51.366;12.350;2023-04-08T12:51:12;101044.16;;;12.02;71.08
66681;BME280;53575;51.366;12.350;2023-04-08T12:53:38;101034.56;;;11.91;72.25
66681;BME280;53575;51.366;12.350;2023-04-08T12:56:03;101046.75;;;11.57;74.46